首页
METAR-TAF:

METAR-TAF

机场 :

敖德薩國際機場

敖德薩, 乌克兰

纬度: 46-26N, 经度: 030-46E, 海拔: 42米

当前天气观测

该预报发布于24分钟前的04:00 UTC
风速8节,风向东北
温度 5°C
湿度 65%
气压 1020 hPa
能见度10公里或以上
1500米以下无云,无积雨云

METAR: UKOO 090400Z 04004MPS CAVOK 05/M01 Q1020 R16/090060 NOSIG

时间: 07:24 (04:24 UTC)

预报

该预报发布于5小时和16分钟前的23:08 UTC
预报有效从09日的 00点(UTC)到 09日的 24点(UTC)
风速6节,风向西北
能見度: 6000
散云层高于700英尺
成为
从 09日的 04点(UTC)到 09日的 05点(UTC)
风速6节,风向北转东北,有时为16节阵风
短暂存在
从 09日的 09点(UTC)到 09日的 17点(UTC)
风速6节,风向
成为
从 09日的 18点(UTC)到 09日的 19点(UTC)
风速6节,风向西

TAF: UKOO 082308Z 0900/0924 32003MPS 6000 SCT007 TX16/0912Z TN03/0903Z BECMG 0904/0905 03003G08MPS TEMPO 0909/0917 18003MPS BECMG 0918/0919 27003MPS

超过4000个机场的气象观测和天气预报(METAR&TAF报告)。

可查询的气象台以黄色和红色小点在地图上表示。

将鼠标移到小点上方,可查看气象台名称。

然后点击查看天气观测和预报。

如需切换地图:点击带黑十字的绿色按钮放大地图;点击带横线的绿色按钮缩小地图;或者点击绿色箭头查看邻近地区的地图。


METAR-TAF: